sensor_id;sensor_type;location;lat;lon;timestamp;P1;durP1;ratioP1;P2;durP2;ratioP2
62941;SDS011;49042;47.318;19.874;2023-04-25T00:01:51;9.88;;;7.75;;
62941;SDS011;49042;47.318;19.874;2023-04-25T00:04:52;10.60;;;7.68;;
62941;SDS011;49042;47.318;19.874;2023-04-25T00:07:54;12.90;;;8.18;;
62941;SDS011;49042;47.318;19.874;2023-04-25T00:10:57;13.27;;;7.50;;
62941;SDS011;49042;47.318;19.874;2023-04-25T00:13:58;11.27;;;7.03;;
62941;SDS011;49042;47.318;19.874;2023-04-25T00:17:03;9.68;;;7.25;;
62941;SDS011;49042;47.318;19.874;2023-04-25T00:20:05;11.90;;;8.02;;
62941;SDS011;49042;47.318;19.874;2023-04-25T00:23:10;9.65;;;7.35;;
62941;SDS011;49042;47.318;19.874;2023-04-25T00:26:12;9.68;;;7.40;;
62941;SDS011;49042;47.318;19.874;2023-04-25T00:29:13;12.07;;;6.85;;
62941;SDS011;49042;47.318;19.874;2023-04-25T00:32:15;9.77;;;7.20;;
62941;SDS011;49042;47.318;19.874;2023-04-25T00:35:17;9.32;;;7.10;;
62941;SDS011;49042;47.318;19.874;2023-04-25T00:38:19;7.53;;;6.43;;
62941;SDS011;49042;47.318;19.874;2023-04-25T00:41:20;9.10;;;7.07;;
62941;SDS011;49042;47.318;19.874;2023-04-25T00:44:22;8.25;;;6.45;;
62941;SDS011;49042;47.318;19.874;2023-04-25T00:47:25;9.63;;;7.25;;
62941;SDS011;49042;47.318;19.874;2023-04-25T00:50:27;11.57;;;6.75;;
62941;SDS011;49042;47.318;19.874;2023-04-25T00:53:28;8.65;;;6.53;;
62941;SDS011;49042;47.318;19.874;2023-04-25T00:56:31;11.43;;;7.28;;
62941;SDS011;49042;47.318;19.874;2023-04-25T00:59:33;9.52;;;6.82;;
62941;SDS011;49042;47.318;19.874;2023-04-25T01:02:35;7.45;;;6.43;;
62941;SDS011;49042;47.318;19.874;2023-04-25T01:05:39;8.75;;;6.78;;
62941;SDS011;49042;47.318;19.874;2023-04-25T01:08:42;9.00;;;6.68;;
62941;SDS011;49042;47.318;19.874;2023-04-25T01:11:44;12.60;;;6.43;;
62941;SDS011;49042;47.318;19.874;2023-04-25T01:14:46;7.85;;;6.37;;
62941;SDS011;49042;47.318;19.874;2023-04-25T01:17:48;8.50;;;6.90;;
62941;SDS011;49042;47.318;19.874;2023-04-25T01:20:51;9.57;;;7.12;;
62941;SDS011;49042;47.318;19.874;2023-04-25T01:23:53;8.77;;;6.82;;
62941;SDS011;49042;47.318;19.874;2023-04-25T01:26:55;14.43;;;6.97;;
62941;SDS011;49042;47.318;19.874;2023-04-25T01:29:58;10.63;;;7.03;;
62941;SDS011;49042;47.318;19.874;2023-04-25T01:33:01;10.60;;;6.72;;
62941;SDS011;49042;47.318;19.874;2023-04-25T01:36:05;10.68;;;6.87;;
62941;SDS011;49042;47.318;19.874;2023-04-25T01:39:07;8.07;;;6.30;;
62941;SDS011;49042;47.318;19.874;2023-04-25T01:42:09;8.45;;;5.78;;
62941;SDS011;49042;47.318;19.874;2023-04-25T01:45:11;6.68;;;5.45;;
62941;SDS011;49042;47.318;19.874;2023-04-25T01:48:14;9.45;;;6.37;;
62941;SDS011;49042;47.318;19.874;2023-04-25T01:51:16;11.30;;;6.15;;
62941;SDS011;49042;47.318;19.874;2023-04-25T01:54:17;7.18;;;5.60;;
62941;SDS011;49042;47.318;19.874;2023-04-25T01:57:20;7.18;;;5.35;;
62941;SDS011;49042;47.318;19.874;2023-04-25T02:00:22;9.55;;;5.18;;
62941;SDS011;49042;47.318;19.874;2023-04-25T02:03:24;7.95;;;5.40;;
62941;SDS011;49042;47.318;19.874;2023-04-25T02:06:25;6.55;;;4.93;;
62941;SDS011;49042;47.318;19.874;2023-04-25T02:09:27;7.72;;;5.50;;
62941;SDS011;49042;47.318;19.874;2023-04-25T02:12:29;5.20;;;4.12;;
62941;SDS011;49042;47.318;19.874;2023-04-25T02:15:32;6.65;;;4.70;;
62941;SDS011;49042;47.318;19.874;2023-04-25T02:18:34;6.60;;;4.20;;
62941;SDS011;49042;47.318;19.874;2023-04-25T02:21:38;7.80;;;4.12;;
62941;SDS011;49042;47.318;19.874;2023-04-25T02:24:39;4.60;;;3.90;;
62941;SDS011;49042;47.318;19.874;2023-04-25T02:27:41;4.28;;;3.60;;
62941;SDS011;49042;47.318;19.874;2023-04-25T02:30:44;5.07;;;3.87;;
62941;SDS011;49042;47.318;19.874;2023-04-25T02:33:46;7.65;;;3.72;;
62941;SDS011;49042;47.318;19.874;2023-04-25T02:36:49;4.68;;;3.67;;
62941;SDS011;49042;47.318;19.874;2023-04-25T02:39:53;5.10;;;3.90;;
62941;SDS011;49042;47.318;19.874;2023-04-25T02:42:55;4.37;;;3.60;;
62941;SDS011;49042;47.318;19.874;2023-04-25T02:45:57;3.78;;;3.30;;
62941;SDS011;49042;47.318;19.874;2023-04-25T02:48:58;5.93;;;3.40;;
62941;SDS011;49042;47.318;19.874;2023-04-25T02:52:00;11.77;;;3.80;;
62941;SDS011;49042;47.318;19.874;2023-04-25T02:55:02;4.05;;;3.50;;
62941;SDS011;49042;47.318;19.874;2023-04-25T02:58:04;4.40;;;3.37;;
62941;SDS011;49042;47.318;19.874;2023-04-25T03:01:05;5.07;;;3.87;;
62941;SDS011;49042;47.318;19.874;2023-04-25T03:04:07;4.03;;;3.20;;
62941;SDS011;49042;47.318;19.874;2023-04-25T03:07:09;4.87;;;3.72;;
62941;SDS011;49042;47.318;19.874;2023-04-25T03:10:11;4.20;;;3.60;;
62941;SDS011;49042;47.318;19.874;2023-04-25T03:13:13;3.97;;;3.03;;
62941;SDS011;49042;47.318;19.874;2023-04-25T03:16:15;6.20;;;3.60;;
62941;SDS011;49042;47.318;19.874;2023-04-25T03:19:17;3.62;;;3.08;;
62941;SDS011;49042;47.318;19.874;2023-04-25T03:22:19;4.87;;;3.50;;
62941;SDS011;49042;47.318;19.874;2023-04-25T03:25:21;9.23;;;3.67;;
62941;SDS011;49042;47.318;19.874;2023-04-25T03:28:23;3.37;;;3.00;;
62941;SDS011;49042;47.318;19.874;2023-04-25T03:31:25;7.25;;;3.03;;
62941;SDS011;49042;47.318;19.874;2023-04-25T03:34:27;4.40;;;3.00;;
62941;SDS011;49042;47.318;19.874;2023-04-25T03:37:29;4.50;;;2.60;;
62941;SDS011;49042;47.318;19.874;2023-04-25T03:40:31;3.92;;;2.75;;
62941;SDS011;49042;47.318;19.874;2023-04-25T03:43:32;7.10;;;2.83;;
62941;SDS011;49042;47.318;19.874;2023-04-25T03:46:34;6.07;;;2.85;;
62941;SDS011;49042;47.318;19.874;2023-04-25T03:49:36;7.80;;;2.70;;
62941;SDS011;49042;47.318;19.874;2023-04-25T03:52:38;4.82;;;3.20;;
62941;SDS011;49042;47.318;19.874;2023-04-25T03:55:39;4.57;;;2.70;;
62941;SDS011;49042;47.318;19.874;2023-04-25T03:58:43;4.70;;;2.60;;
62941;SDS011;49042;47.318;19.874;2023-04-25T04:01:45;6.07;;;2.70;;
62941;SDS011;49042;47.318;19.874;2023-04-25T04:04:47;3.28;;;2.65;;
62941;SDS011;49042;47.318;19.874;2023-04-25T04:07:49;4.28;;;2.60;;
62941;SDS011;49042;47.318;19.874;2023-04-25T04:10:51;4.87;;;2.78;;
62941;SDS011;49042;47.318;19.874;2023-04-25T04:13:53;4.35;;;3.00;;
62941;SDS011;49042;47.318;19.874;2023-04-25T04:16:54;3.53;;;2.60;;
62941;SDS011;49042;47.318;19.874;2023-04-25T04:19:56;3.28;;;2.67;;
62941;SDS011;49042;47.318;19.874;2023-04-25T04:22:58;8.57;;;2.83;;
62941;SDS011;49042;47.318;19.874;2023-04-25T04:25:59;3.90;;;2.87;;
62941;SDS011;49042;47.318;19.874;2023-04-25T04:29:02;3.50;;;2.60;;
62941;SDS011;49042;47.318;19.874;2023-04-25T04:32:04;3.97;;;2.53;;
62941;SDS011;49042;47.318;19.874;2023-04-25T04:35:06;2.83;;;2.55;;
62941;SDS011;49042;47.318;19.874;2023-04-25T04:38:08;3.97;;;2.35;;
62941;SDS011;49042;47.318;19.874;2023-04-25T04:41:10;3.87;;;2.37;;
62941;SDS011;49042;47.318;19.874;2023-04-25T04:44:11;2.62;;;2.42;;
62941;SDS011;49042;47.318;19.874;2023-04-25T04:47:13;7.25;;;2.42;;
62941;SDS011;49042;47.318;19.874;2023-04-25T04:50:15;5.30;;;2.60;;
62941;SDS011;49042;47.318;19.874;2023-04-25T04:53:17;4.43;;;2.67;;
62941;SDS011;49042;47.318;19.874;2023-04-25T04:56:20;2.40;;;2.20;;
62941;SDS011;49042;47.318;19.874;2023-04-25T04:59:24;2.95;;;1.95;;
62941;SDS011;49042;47.318;19.874;2023-04-25T05:02:26;2.65;;;2.00;;
62941;SDS011;49042;47.318;19.874;2023-04-25T05:05:29;2.37;;;1.90;;
62941;SDS011;49042;47.318;19.874;2023-04-25T05:08:30;2.15;;;1.77;;
62941;SDS011;49042;47.318;19.874;2023-04-25T05:11:32;5.35;;;1.75;;
62941;SDS011;49042;47.318;19.874;2023-04-25T05:14:34;8.20;;;2.25;;
62941;SDS011;49042;47.318;19.874;2023-04-25T05:17:36;1.90;;;1.50;;
62941;SDS011;49042;47.318;19.874;2023-04-25T05:20:38;3.12;;;1.37;;
62941;SDS011;49042;47.318;19.874;2023-04-25T05:23:39;2.42;;;1.50;;
62941;SDS011;49042;47.318;19.874;2023-04-25T05:26:41;2.85;;;1.33;;
62941;SDS011;49042;47.318;19.874;2023-04-25T05:29:43;2.62;;;1.50;;
62941;SDS011;49042;47.318;19.874;2023-04-25T05:32:45;3.83;;;1.58;;
62941;SDS011;49042;47.318;19.874;2023-04-25T05:35:48;3.03;;;1.50;;
62941;SDS011;49042;47.318;19.874;2023-04-25T05:38:50;3.37;;;1.30;;
62941;SDS011;49042;47.318;19.874;2023-04-25T05:41:52;2.67;;;1.27;;
62941;SDS011;49042;47.318;19.874;2023-04-25T05:44:53;4.12;;;1.55;;
62941;SDS011;49042;47.318;19.874;2023-04-25T05:47:55;4.10;;;1.60;;
62941;SDS011;49042;47.318;19.874;2023-04-25T05:50:57;4.87;;;1.87;;
62941;SDS011;49042;47.318;19.874;2023-04-25T05:53:59;1.95;;;1.23;;
62941;SDS011;49042;47.318;19.874;2023-04-25T05:57:01;3.05;;;1.87;;
62941;SDS011;49042;47.318;19.874;2023-04-25T06:00:04;2.78;;;1.90;;
62941;SDS011;49042;47.318;19.874;2023-04-25T06:03:10;5.07;;;1.87;;
62941;SDS011;49042;47.318;19.874;2023-04-25T06:06:13;3.72;;;2.10;;
62941;SDS011;49042;47.318;19.874;2023-04-25T06:09:14;5.32;;;1.80;;
62941;SDS011;49042;47.318;19.874;2023-04-25T06:12:16;7.78;;;3.20;;
62941;SDS011;49042;47.318;19.874;2023-04-25T06:15:18;6.00;;;3.20;;
62941;SDS011;49042;47.318;19.874;2023-04-25T06:18:22;5.22;;;3.00;;
62941;SDS011;49042;47.318;19.874;2023-04-25T06:21:24;4.70;;;2.53;;
62941;SDS011;49042;47.318;19.874;2023-04-25T06:24:27;2.12;;;1.90;;
62941;SDS011;49042;47.318;19.874;2023-04-25T06:27:29;3.65;;;1.98;;
62941;SDS011;49042;47.318;19.874;2023-04-25T06:30:30;1.98;;;1.77;;
62941;SDS011;49042;47.318;19.874;2023-04-25T06:33:32;2.75;;;2.00;;
62941;SDS011;49042;47.318;19.874;2023-04-25T06:36:35;2.50;;;1.77;;
62941;SDS011;49042;47.318;19.874;2023-04-25T06:39:36;2.47;;;2.00;;
62941;SDS011;49042;47.318;19.874;2023-04-25T06:42:41;2.10;;;1.90;;
62941;SDS011;49042;47.318;19.874;2023-04-25T06:45:43;3.22;;;1.70;;
62941;SDS011;49042;47.318;19.874;2023-04-25T06:48:48;2.67;;;1.92;;
62941;SDS011;49042;47.318;19.874;2023-04-25T06:51:49;3.97;;;1.90;;
62941;SDS011;49042;47.318;19.874;2023-04-25T06:54:51;3.15;;;2.10;;
62941;SDS011;49042;47.318;19.874;2023-04-25T06:57:53;5.45;;;2.10;;
62941;SDS011;49042;47.318;19.874;2023-04-25T07:00:56;1.95;;;1.48;;
62941;SDS011;49042;47.318;19.874;2023-04-25T07:03:58;3.65;;;2.40;;
62941;SDS011;49042;47.318;19.874;2023-04-25T07:07:00;1.90;;;1.65;;
62941;SDS011;49042;47.318;19.874;2023-04-25T07:10:04;1.75;;;1.60;;
62941;SDS011;49042;47.318;19.874;2023-04-25T07:13:06;1.73;;;1.60;;
62941;SDS011;49042;47.318;19.874;2023-04-25T07:16:08;1.65;;;1.35;;
62941;SDS011;49042;47.318;19.874;2023-04-25T07:19:10;3.08;;;1.52;;
62941;SDS011;49042;47.318;19.874;2023-04-25T07:22:11;3.42;;;1.50;;
62941;SDS011;49042;47.318;19.874;2023-04-25T07:25:13;2.08;;;1.83;;
62941;SDS011;49042;47.318;19.874;2023-04-25T07:28:15;3.28;;;1.52;;
62941;SDS011;49042;47.318;19.874;2023-04-25T07:31:19;4.47;;;2.00;;
62941;SDS011;49042;47.318;19.874;2023-04-25T07:34:21;2.35;;;1.70;;
62941;SDS011;49042;47.318;19.874;2023-04-25T07:37:23;1.50;;;1.40;;
62941;SDS011;49042;47.318;19.874;2023-04-25T07:40:25;4.05;;;2.80;;
62941;SDS011;49042;47.318;19.874;2023-04-25T07:43:26;11.23;;;5.03;;
62941;SDS011;49042;47.318;19.874;2023-04-25T07:46:28;2.03;;;1.77;;
62941;SDS011;49042;47.318;19.874;2023-04-25T07:49:30;5.00;;;3.20;;
62941;SDS011;49042;47.318;19.874;2023-04-25T07:52:32;3.33;;;1.52;;
62941;SDS011;49042;47.318;19.874;2023-04-25T07:55:33;2.60;;;1.90;;
62941;SDS011;49042;47.318;19.874;2023-04-25T07:58:35;2.05;;;1.70;;
62941;SDS011;49042;47.318;19.874;2023-04-25T08:01:37;4.07;;;1.60;;
62941;SDS011;49042;47.318;19.874;2023-04-25T08:04:38;3.72;;;1.95;;
62941;SDS011;49042;47.318;19.874;2023-04-25T08:07:41;1.40;;;1.30;;
62941;SDS011;49042;47.318;19.874;2023-04-25T08:10:43;3.83;;;1.75;;
62941;SDS011;49042;47.318;19.874;2023-04-25T08:13:44;1.48;;;1.33;;
62941;SDS011;49042;47.318;19.874;2023-04-25T08:16:46;2.85;;;1.50;;
62941;SDS011;49042;47.318;19.874;2023-04-25T08:19:48;2.72;;;1.20;;
62941;SDS011;49042;47.318;19.874;2023-04-25T08:22:50;4.15;;;1.50;;
62941;SDS011;49042;47.318;19.874;2023-04-25T08:25:52;2.55;;;1.40;;
62941;SDS011;49042;47.318;19.874;2023-04-25T08:28:53;3.00;;;1.77;;
62941;SDS011;49042;47.318;19.874;2023-04-25T08:31:55;1.40;;;1.10;;
62941;SDS011;49042;47.318;19.874;2023-04-25T08:34:58;2.08;;;1.08;;
62941;SDS011;49042;47.318;19.874;2023-04-25T08:37:59;3.60;;;1.58;;
62941;SDS011;49042;47.318;19.874;2023-04-25T08:41:02;2.12;;;1.37;;
62941;SDS011;49042;47.318;19.874;2023-04-25T08:44:04;2.05;;;1.02;;
62941;SDS011;49042;47.318;19.874;2023-04-25T08:47:07;2.78;;;1.15;;
62941;SDS011;49042;47.318;19.874;2023-04-25T08:50:09;7.93;;;1.20;;
62941;SDS011;49042;47.318;19.874;2023-04-25T08:53:12;1.30;;;1.02;;
62941;SDS011;49042;47.318;19.874;2023-04-25T08:56:20;2.33;;;1.15;;
62941;SDS011;49042;47.318;19.874;2023-04-25T08:59:24;1.65;;;1.00;;
62941;SDS011;49042;47.318;19.874;2023-04-25T09:02:26;1.75;;;1.02;;
62941;SDS011;49042;47.318;19.874;2023-04-25T09:05:29;1.62;;;0.90;;
62941;SDS011;49042;47.318;19.874;2023-04-25T09:08:31;1.40;;;0.90;;
62941;SDS011;49042;47.318;19.874;2023-04-25T09:11:33;1.80;;;1.08;;
62941;SDS011;49042;47.318;19.874;2023-04-25T09:14:37;2.70;;;1.87;;
62941;SDS011;49042;47.318;19.874;2023-04-25T09:17:41;1.30;;;1.00;;
62941;SDS011;49042;47.318;19.874;2023-04-25T09:20:43;1.60;;;0.60;;
62941;SDS011;49042;47.318;19.874;2023-04-25T09:24:02;2.20;;;0.60;;
62941;SDS011;49042;47.318;19.874;2023-04-25T09:27:05;5.37;;;0.88;;
62941;SDS011;49042;47.318;19.874;2023-04-25T09:30:08;0.70;;;0.70;;
62941;SDS011;49042;47.318;19.874;2023-04-25T09:33:10;0.93;;;0.60;;
62941;SDS011;49042;47.318;19.874;2023-04-25T09:36:12;0.75;;;0.60;;
62941;SDS011;49042;47.318;19.874;2023-04-25T09:39:14;0.65;;;0.65;;
62941;SDS011;49042;47.318;19.874;2023-04-25T09:42:24;2.15;;;0.90;;
62941;SDS011;49042;47.318;19.874;2023-04-25T09:45:29;3.58;;;0.80;;
62941;SDS011;49042;47.318;19.874;2023-04-25T09:48:32;0.50;;;0.50;;
62941;SDS011;49042;47.318;19.874;2023-04-25T09:51:34;1.25;;;0.60;;
62941;SDS011;49042;47.318;19.874;2023-04-25T09:54:35;1.10;;;0.80;;
62941;SDS011;49042;47.318;19.874;2023-04-25T09:57:37;0.80;;;0.80;;
62941;SDS011;49042;47.318;19.874;2023-04-25T10:00:42;0.68;;;0.65;;
62941;SDS011;49042;47.318;19.874;2023-04-25T10:03:44;2.05;;;0.70;;
62941;SDS011;49042;47.318;19.874;2023-04-25T10:06:50;1.10;;;0.57;;
62941;SDS011;49042;47.318;19.874;2023-04-25T10:10:03;2.47;;;0.70;;
62941;SDS011;49042;47.318;19.874;2023-04-25T10:13:06;0.98;;;0.70;;
62941;SDS011;49042;47.318;19.874;2023-04-25T10:16:07;6.12;;;0.70;;
62941;SDS011;49042;47.318;19.874;2023-04-25T10:19:09;0.80;;;0.70;;
62941;SDS011;49042;47.318;19.874;2023-04-25T10:22:20;0.73;;;0.70;;
62941;SDS011;49042;47.318;19.874;2023-04-25T10:25:31;0.62;;;0.60;;
62941;SDS011;49042;47.318;19.874;2023-04-25T10:28:54;0.80;;;0.65;;
62941;SDS011;49042;47.318;19.874;2023-04-25T10:32:13;3.42;;;0.90;;
62941;SDS011;49042;47.318;19.874;2023-04-25T10:35:16;0.90;;;0.73;;
62941;SDS011;49042;47.318;19.874;2023-04-25T10:38:20;0.82;;;0.80;;
62941;SDS011;49042;47.318;19.874;2023-04-25T10:41:21;3.92;;;0.80;;
62941;SDS011;49042;47.318;19.874;2023-04-25T10:44:27;0.90;;;0.80;;
62941;SDS011;49042;47.318;19.874;2023-04-25T10:47:36;0.50;;;0.50;;
62941;SDS011;49042;47.318;19.874;2023-04-25T10:50:38;0.60;;;0.60;;
62941;SDS011;49042;47.318;19.874;2023-04-25T10:56:58;1.55;;;0.62;;
62941;SDS011;49042;47.318;19.874;2023-04-25T11:03:15;4.95;;;0.60;;
62941;SDS011;49042;47.318;19.874;2023-04-25T11:06:51;0.50;;;0.50;;
62941;SDS011;49042;47.318;19.874;2023-04-25T11:10:07;1.25;;;0.75;;
62941;SDS011;49042;47.318;19.874;2023-04-25T11:13:09;2.53;;;0.57;;
62941;SDS011;49042;47.318;19.874;2023-04-25T11:16:10;1.80;;;0.70;;
62941;SDS011;49042;47.318;19.874;2023-04-25T11:19:19;0.50;;;0.50;;
62941;SDS011;49042;47.318;19.874;2023-04-25T11:22:21;0.88;;;0.57;;
62941;SDS011;49042;47.318;19.874;2023-04-25T11:25:23;1.25;;;0.80;;
62941;SDS011;49042;47.318;19.874;2023-04-25T11:28:27;2.00;;;1.10;;
62941;SDS011;49042;47.318;19.874;2023-04-25T11:31:28;1.67;;;0.95;;
62941;SDS011;49042;47.318;19.874;2023-04-25T11:34:31;0.93;;;0.65;;
62941;SDS011;49042;47.318;19.874;2023-04-25T11:37:38;0.95;;;0.52;;
62941;SDS011;49042;47.318;19.874;2023-04-25T11:40:40;0.60;;;0.60;;
62941;SDS011;49042;47.318;19.874;2023-04-25T11:43:42;0.50;;;0.50;;
62941;SDS011;49042;47.318;19.874;2023-04-25T11:46:45;0.40;;;0.40;;
62941;SDS011;49042;47.318;19.874;2023-04-25T11:49:47;0.40;;;0.40;;
62941;SDS011;49042;47.318;19.874;2023-04-25T11:52:50;4.93;;;0.60;;
62941;SDS011;49042;47.318;19.874;2023-04-25T11:55:51;0.73;;;0.50;;
62941;SDS011;49042;47.318;19.874;2023-04-25T11:58:55;0.90;;;0.50;;
62941;SDS011;49042;47.318;19.874;2023-04-25T12:01:57;2.92;;;0.82;;
62941;SDS011;49042;47.318;19.874;2023-04-25T12:04:59;0.40;;;0.40;;
62941;SDS011;49042;47.318;19.874;2023-04-25T12:08:21;0.70;;;0.50;;
62941;SDS011;49042;47.318;19.874;2023-04-25T12:11:22;0.40;;;0.40;;
62941;SDS011;49042;47.318;19.874;2023-04-25T12:14:25;0.40;;;0.40;;
62941;SDS011;49042;47.318;19.874;2023-04-25T12:17:31;0.52;;;0.50;;
62941;SDS011;49042;47.318;19.874;2023-04-25T12:20:33;1.73;;;1.27;;
62941;SDS011;49042;47.318;19.874;2023-04-25T12:23:35;0.80;;;0.70;;
62941;SDS011;49042;47.318;19.874;2023-04-25T12:26:50;0.40;;;0.40;;
62941;SDS011;49042;47.318;19.874;2023-04-25T12:29:54;0.68;;;0.40;;
62941;SDS011;49042;47.318;19.874;2023-04-25T12:32:57;0.40;;;0.40;;
62941;SDS011;49042;47.318;19.874;2023-04-25T12:35:59;0.80;;;0.60;;
62941;SDS011;49042;47.318;19.874;2023-04-25T12:39:02;1.92;;;0.43;;
62941;SDS011;49042;47.318;19.874;2023-04-25T12:42:05;1.85;;;0.50;;
62941;SDS011;49042;47.318;19.874;2023-04-25T12:45:10;2.05;;;0.45;;
62941;SDS011;49042;47.318;19.874;2023-04-25T12:48:11;0.43;;;0.43;;
62941;SDS011;49042;47.318;19.874;2023-04-25T12:51:13;1.23;;;0.40;;
62941;SDS011;49042;47.318;19.874;2023-04-25T12:54:15;0.40;;;0.40;;
62941;SDS011;49042;47.318;19.874;2023-04-25T12:57:17;0.50;;;0.50;;
62941;SDS011;49042;47.318;19.874;2023-04-25T13:00:19;0.50;;;0.50;;
62941;SDS011;49042;47.318;19.874;2023-04-25T13:03:21;0.52;;;0.52;;
62941;SDS011;49042;47.318;19.874;2023-04-25T13:06:23;0.50;;;0.50;;
62941;SDS011;49042;47.318;19.874;2023-04-25T13:09:25;0.60;;;0.60;;
62941;SDS011;49042;47.318;19.874;2023-04-25T13:12:27;0.60;;;0.50;;
62941;SDS011;49042;47.318;19.874;2023-04-25T13:15:30;0.57;;;0.50;;
62941;SDS011;49042;47.318;19.874;2023-04-25T13:18:32;2.28;;;0.68;;
62941;SDS011;49042;47.318;19.874;2023-04-25T13:21:33;1.23;;;0.77;;
62941;SDS011;49042;47.318;19.874;2023-04-25T13:24:35;2.75;;;1.10;;
62941;SDS011;49042;47.318;19.874;2023-04-25T13:27:37;1.62;;;1.15;;
62941;SDS011;49042;47.318;19.874;2023-04-25T13:30:39;1.65;;;1.10;;
62941;SDS011;49042;47.318;19.874;2023-04-25T13:33:41;1.40;;;1.15;;
62941;SDS011;49042;47.318;19.874;2023-04-25T13:36:44;1.20;;;0.90;;
62941;SDS011;49042;47.318;19.874;2023-04-25T13:39:46;1.10;;;0.95;;
62941;SDS011;49042;47.318;19.874;2023-04-25T13:42:48;1.65;;;1.30;;
62941;SDS011;49042;47.318;19.874;2023-04-25T13:45:50;4.95;;;2.15;;
62941;SDS011;49042;47.318;19.874;2023-04-25T13:48:51;1.05;;;0.93;;
62941;SDS011;49042;47.318;19.874;2023-04-25T13:52:03;1.58;;;0.80;;
62941;SDS011;49042;47.318;19.874;2023-04-25T13:55:05;2.45;;;1.52;;
62941;SDS011;49042;47.318;19.874;2023-04-25T13:58:08;2.55;;;1.50;;
62941;SDS011;49042;47.318;19.874;2023-04-25T14:01:11;1.48;;;1.20;;
62941;SDS011;49042;47.318;19.874;2023-04-25T14:04:13;1.60;;;1.00;;
62941;SDS011;49042;47.318;19.874;2023-04-25T14:07:14;0.70;;;0.60;;
62941;SDS011;49042;47.318;19.874;2023-04-25T14:10:17;1.67;;;0.88;;
62941;SDS011;49042;47.318;19.874;2023-04-25T14:13:19;1.50;;;0.60;;
62941;SDS011;49042;47.318;19.874;2023-04-25T14:16:21;1.05;;;0.90;;
62941;SDS011;49042;47.318;19.874;2023-04-25T14:19:24;1.17;;;0.80;;
62941;SDS011;49042;47.318;19.874;2023-04-25T14:22:26;2.78;;;0.60;;
62941;SDS011;49042;47.318;19.874;2023-04-25T14:25:27;1.08;;;0.73;;
62941;SDS011;49042;47.318;19.874;2023-04-25T14:28:31;2.87;;;0.77;;
62941;SDS011;49042;47.318;19.874;2023-04-25T14:31:33;3.75;;;1.00;;
62941;SDS011;49042;47.318;19.874;2023-04-25T14:34:35;1.62;;;0.60;;
62941;SDS011;49042;47.318;19.874;2023-04-25T14:37:36;1.75;;;0.60;;
62941;SDS011;49042;47.318;19.874;2023-04-25T14:40:38;0.77;;;0.70;;
62941;SDS011;49042;47.318;19.874;2023-04-25T14:43:40;0.98;;;0.68;;
62941;SDS011;49042;47.318;19.874;2023-04-25T14:46:42;5.28;;;1.10;;
62941;SDS011;49042;47.318;19.874;2023-04-25T14:49:44;1.83;;;0.70;;
62941;SDS011;49042;47.318;19.874;2023-04-25T14:52:52;0.52;;;0.52;;
62941;SDS011;49042;47.318;19.874;2023-04-25T14:55:54;0.93;;;0.70;;
62941;SDS011;49042;47.318;19.874;2023-04-25T14:58:55;1.50;;;0.73;;
62941;SDS011;49042;47.318;19.874;2023-04-25T15:01:57;1.67;;;0.73;;
62941;SDS011;49042;47.318;19.874;2023-04-25T15:05:00;1.95;;;0.73;;
62941;SDS011;49042;47.318;19.874;2023-04-25T15:08:02;2.05;;;0.70;;
62941;SDS011;49042;47.318;19.874;2023-04-25T15:11:04;0.70;;;0.70;;
62941;SDS011;49042;47.318;19.874;2023-04-25T15:14:06;1.17;;;0.70;;
62941;SDS011;49042;47.318;19.874;2023-04-25T15:17:07;0.65;;;0.65;;
62941;SDS011;49042;47.318;19.874;2023-04-25T15:20:09;2.45;;;0.90;;
62941;SDS011;49042;47.318;19.874;2023-04-25T15:23:13;5.72;;;1.70;;
62941;SDS011;49042;47.318;19.874;2023-04-25T15:26:14;3.87;;;1.48;;
62941;SDS011;49042;47.318;19.874;2023-04-25T15:29:16;3.22;;;1.30;;
62941;SDS011;49042;47.318;19.874;2023-04-25T15:32:18;2.67;;;1.45;;
62941;SDS011;49042;47.318;19.874;2023-04-25T15:35:20;3.78;;;2.17;;
62941;SDS011;49042;47.318;19.874;2023-04-25T15:38:22;2.08;;;1.20;;
62941;SDS011;49042;47.318;19.874;2023-04-25T15:41:23;1.15;;;0.88;;
62941;SDS011;49042;47.318;19.874;2023-04-25T15:44:26;2.37;;;1.25;;
62941;SDS011;49042;47.318;19.874;2023-04-25T15:47:28;2.20;;;1.58;;
62941;SDS011;49042;47.318;19.874;2023-04-25T15:50:29;1.35;;;0.90;;
62941;SDS011;49042;47.318;19.874;2023-04-25T15:53:31;1.27;;;0.90;;
62941;SDS011;49042;47.318;19.874;2023-04-25T15:56:33;2.40;;;1.40;;
62941;SDS011;49042;47.318;19.874;2023-04-25T15:59:35;3.15;;;1.65;;
62941;SDS011;49042;47.318;19.874;2023-04-25T16:02:40;2.55;;;1.45;;
62941;SDS011;49042;47.318;19.874;2023-04-25T16:05:43;1.30;;;1.10;;
62941;SDS011;49042;47.318;19.874;2023-04-25T16:08:44;2.00;;;1.33;;
62941;SDS011;49042;47.318;19.874;2023-04-25T16:11:46;2.17;;;1.30;;
62941;SDS011;49042;47.318;19.874;2023-04-25T16:14:48;2.08;;;1.23;;
62941;SDS011;49042;47.318;19.874;2023-04-25T16:17:49;1.87;;;1.30;;
62941;SDS011;49042;47.318;19.874;2023-04-25T16:20:52;2.97;;;1.23;;
62941;SDS011;49042;47.318;19.874;2023-04-25T16:23:53;4.53;;;1.50;;
62941;SDS011;49042;47.318;19.874;2023-04-25T16:26:55;8.45;;;1.90;;
62941;SDS011;49042;47.318;19.874;2023-04-25T16:29:57;2.97;;;1.90;;
62941;SDS011;49042;47.318;19.874;2023-04-25T16:32:58;2.92;;;1.60;;
62941;SDS011;49042;47.318;19.874;2023-04-25T16:36:00;2.15;;;1.20;;
62941;SDS011;49042;47.318;19.874;2023-04-25T16:39:02;1.95;;;1.20;;
62941;SDS011;49042;47.318;19.874;2023-04-25T16:42:04;1.85;;;1.10;;
62941;SDS011;49042;47.318;19.874;2023-04-25T16:45:06;1.48;;;0.88;;
62941;SDS011;49042;47.318;19.874;2023-04-25T16:48:08;3.55;;;1.48;;
62941;SDS011;49042;47.318;19.874;2023-04-25T16:51:10;3.30;;;1.30;;
62941;SDS011;49042;47.318;19.874;2023-04-25T16:54:12;9.32;;;2.22;;
62941;SDS011;49042;47.318;19.874;2023-04-25T16:57:14;2.97;;;1.00;;
62941;SDS011;49042;47.318;19.874;2023-04-25T17:00:16;1.75;;;0.70;;
62941;SDS011;49042;47.318;19.874;2023-04-25T17:03:18;2.40;;;0.90;;
62941;SDS011;49042;47.318;19.874;2023-04-25T17:06:21;1.60;;;1.10;;
62941;SDS011;49042;47.318;19.874;2023-04-25T17:09:23;3.53;;;2.05;;
62941;SDS011;49042;47.318;19.874;2023-04-25T17:12:29;5.25;;;3.20;;
62941;SDS011;49042;47.318;19.874;2023-04-25T17:15:30;8.55;;;3.30;;
62941;SDS011;49042;47.318;19.874;2023-04-25T17:18:34;28.70;;;10.93;;
62941;SDS011;49042;47.318;19.874;2023-04-25T17:21:37;28.05;;;11.27;;
62941;SDS011;49042;47.318;19.874;2023-04-25T17:24:39;32.22;;;15.05;;
62941;SDS011;49042;47.318;19.874;2023-04-25T17:27:41;33.60;;;19.17;;
62941;SDS011;49042;47.318;19.874;2023-04-25T17:30:44;6.35;;;3.85;;
62941;SDS011;49042;47.318;19.874;2023-04-25T17:33:46;6.15;;;3.90;;
62941;SDS011;49042;47.318;19.874;2023-04-25T17:36:48;6.62;;;5.68;;
62941;SDS011;49042;47.318;19.874;2023-04-25T17:39:50;8.60;;;7.55;;
62941;SDS011;49042;47.318;19.874;2023-04-25T17:42:53;6.90;;;5.28;;
62941;SDS011;49042;47.318;19.874;2023-04-25T17:45:55;4.37;;;3.30;;
62941;SDS011;49042;47.318;19.874;2023-04-25T17:48:57;9.20;;;5.30;;
62941;SDS011;49042;47.318;19.874;2023-04-25T17:51:59;5.35;;;3.70;;
62941;SDS011;49042;47.318;19.874;2023-04-25T17:55:04;4.78;;;2.90;;
62941;SDS011;49042;47.318;19.874;2023-04-25T17:58:07;4.03;;;2.50;;
62941;SDS011;49042;47.318;19.874;2023-04-25T18:01:09;17.60;;;5.43;;
62941;SDS011;49042;47.318;19.874;2023-04-25T18:04:11;31.30;;;13.95;;
62941;SDS011;49042;47.318;19.874;2023-04-25T18:07:14;36.95;;;18.02;;
62941;SDS011;49042;47.318;19.874;2023-04-25T18:10:16;76.60;;;38.67;;